Portada
METAR-TAF:

METAR-TAF

Aeroports :

Olney-Noble Airport

Olney-Noble, Illinois, Estats Units d'Amèrica

latitud: 38-43-19N, longitud: 088-10-35W, altitud: 147 m

Observació

L'informe es va fer fa 25 minuts, a les 07:55 UTC
Vent calma
Temperatura 21°C
Humitat 94%
Pressió 1015 hPa
Visibilitat: 4.8 km
Cel clar
boirina

METAR: KOLY 060755Z AUTO 00000KT 3SM BR CLR 21/20 A2996 RMK AO2 LTG DSNT N T02070201

Hora: 03:20 (08:20 UTC)


TAF: manca

Observacions i pronòstics meteorològics de més de 4000 aeroports (METAR i TAF).

Les estacions disponibles són els punts grocs i vermells al mapa.

Posi el ratolí al punt desitjat per veure el nom de l'estació.

Feu clic per veure les observacions i els pronòstics meteorològics.

Per canviar el mapa: feu clic els botons verds amb una creu de color negre per apropar; al botó verd amb un guió per allunyar la imatge; o en les fletxes verdes per a mapes adjacents.


METAR-TAF: